createdAt,value
2019-01-22T00:01:03.200Z,22.50
2019-01-22T00:05:11.494Z,24.10
2019-01-22T00:09:19.773Z,25.17
2019-01-22T00:13:28.062Z,23.97
2019-01-22T00:17:36.325Z,25.50
2019-01-22T00:21:44.591Z,24.60
2019-01-22T00:25:52.857Z,26.60
2019-01-22T00:30:09.456Z,26.00
2019-01-22T00:34:17.733Z,25.30
2019-01-22T00:38:25.993Z,24.43
2019-01-22T00:42:34.314Z,25.33
2019-01-22T00:46:42.601Z,26.27
2019-01-22T00:50:50.927Z,24.80
2019-01-22T00:54:59.184Z,23.57
2019-01-22T00:59:07.494Z,22.43
2019-01-22T01:03:15.774Z,26.30
2019-01-22T01:07:24.041Z,22.77
2019-01-22T01:11:33.118Z,26.42
2019-01-22T01:15:41.393Z,24.57
2019-01-22T01:19:49.718Z,25.30
2019-01-22T01:23:57.990Z,24.83
2019-01-22T01:28:06.246Z,21.90
2019-01-22T01:32:14.532Z,26.30
2019-01-22T01:36:22.839Z,24.07
2019-01-22T01:40:31.090Z,23.37
2019-01-22T01:44:39.364Z,27.10
2019-01-22T01:48:47.630Z,26.87
2019-01-22T01:52:55.928Z,26.40
2019-01-22T01:57:04.171Z,24.52
2019-01-22T02:01:12.437Z,24.50
2019-01-22T02:05:20.734Z,23.13
2019-01-22T02:09:28.976Z,22.90
2019-01-22T02:13:41.949Z,24.15
2019-01-22T02:18:05.583Z,23.27
2019-01-22T02:22:29.523Z,23.50
2019-01-22T02:27:08.490Z,23.07
2019-01-22T02:31:27.703Z,24.17
2019-01-22T02:35:48.297Z,22.53
2019-01-22T02:40:06.592Z,22.10
2019-01-22T02:44:44.197Z,22.90
2019-01-22T02:50:21.116Z,21.43
2019-01-22T02:54:41.998Z,20.82
2019-01-22T02:59:07.920Z,23.00
2019-01-22T03:03:35.998Z,21.87
2019-01-22T03:07:54.044Z,22.23
2019-01-22T03:12:18.366Z,20.27
2019-01-22T03:16:55.560Z,23.17
2019-01-22T03:21:25.478Z,22.37
2019-01-22T03:25:51.915Z,22.60
2019-01-22T03:32:47.304Z,21.50
2019-01-22T03:37:08.919Z,21.47
2019-01-22T03:42:02.476Z,22.67
2019-01-22T03:46:25.087Z,21.73
2019-01-22T03:51:15.710Z,19.87
2019-01-22T03:55:47.033Z,22.17
2019-01-22T03:59:55.402Z,19.10
2019-01-22T04:04:03.886Z,21.50
2019-01-22T04:08:12.147Z,20.57
2019-01-22T04:12:20.443Z,19.30
2019-01-22T04:16:28.769Z,20.70
2019-01-22T04:20:38.881Z,21.60
2019-01-22T04:24:53.650Z,21.30
2019-01-22T04:29:15.985Z,19.80
2019-01-22T04:34:33.939Z,21.20
2019-01-22T04:38:58.262Z,19.40
2019-01-22T04:44:38.049Z,22.40
2019-01-22T04:48:59.476Z,20.17
2019-01-22T04:53:50.715Z,19.73
2019-01-22T04:58:09.101Z,20.33
2019-01-22T05:02:36.018Z,18.57
2019-01-22T05:09:59.464Z,18.60
2019-01-22T05:16:21.605Z,19.33
2019-01-22T05:21:14.055Z,19.00
2019-01-22T05:25:47.149Z,18.93
2019-01-22T05:32:09.814Z,18.70
2019-01-22T05:36:34.427Z,17.80
2019-01-22T05:41:41.297Z,18.93
2019-01-22T05:46:39.695Z,19.30
2019-01-22T05:51:07.318Z,19.97
2019-01-22T05:55:22.564Z,19.40
2019-01-22T05:59:57.736Z,18.40
2019-01-22T06:06:18.524Z,18.90
2019-01-22T06:11:51.117Z,18.07
2019-01-22T06:17:08.600Z,17.50
2019-01-22T06:21:26.478Z,17.97
2019-01-22T06:27:47.768Z,16.67
2019-01-22T06:32:05.693Z,18.20
2019-01-22T06:37:16.122Z,19.57
2019-01-22T06:42:37.426Z,17.80
2019-01-22T06:46:54.955Z,17.30
2019-01-22T06:52:10.464Z,19.63
2019-01-22T06:56:32.862Z,16.90
2019-01-22T07:01:08.563Z,17.27
2019-01-22T07:05:35.860Z,15.43
2019-01-22T07:10:29.600Z,16.67
2019-01-22T07:16:51.802Z,17.80
2019-01-22T07:21:16.287Z,17.70
2019-01-22T07:26:46.473Z,21.07
2019-01-22T07:31:10.969Z,16.40
2019-01-22T07:35:29.415Z,17.90
2019-01-22T07:41:54.536Z,17.77
2019-01-22T07:47:14.846Z,16.20
2019-01-22T07:51:32.475Z,18.37
2019-01-22T07:55:50.903Z,17.50
2019-01-22T08:00:12.740Z,17.90
2019-01-22T08:04:43.183Z,22.43
2019-01-22T08:11:07.090Z,19.70
2019-01-22T08:15:25.558Z,19.40
2019-01-22T08:19:54.422Z,19.97
2019-01-22T08:26:49.722Z,19.00
2019-01-22T08:31:08.386Z,22.10
2019-01-22T08:36:32.233Z,20.27
2019-01-22T08:40:51.058Z,20.07
2019-01-22T08:45:14.828Z,22.03
2019-01-22T08:49:46.000Z,22.93
2019-01-22T08:55:09.325Z,20.97
2019-01-22T08:59:33.538Z,20.20
2019-01-22T09:03:56.901Z,20.93
2019-01-22T09:08:14.194Z,23.20
2019-01-22T09:12:51.463Z,22.87
2019-01-22T09:18:16.006Z,23.30
2019-01-22T09:24:37.592Z,21.30
2019-01-22T09:29:03.963Z,20.80
2019-01-22T09:33:22.645Z,21.13
2019-01-22T09:37:44.634Z,21.37
2019-01-22T09:41:52.980Z,20.43
2019-01-22T09:46:01.358Z,23.07
2019-01-22T09:50:09.681Z,22.63
2019-01-22T09:54:17.955Z,21.63
2019-01-22T09:58:26.206Z,21.70
2019-01-22T10:02:34.526Z,22.50
2019-01-22T10:06:42.832Z,21.57
2019-01-22T10:10:51.111Z,22.33
2019-01-22T10:14:59.427Z,21.93
2019-01-22T10:19:07.841Z,18.93
2019-01-22T10:23:16.161Z,21.17
2019-01-22T10:27:24.474Z,20.03
2019-01-22T10:31:32.807Z,21.83
2019-01-22T10:35:41.121Z,19.77
2019-01-22T10:39:49.465Z,27.42
2019-01-22T10:43:57.803Z,20.20
2019-01-22T10:48:06.224Z,19.97
2019-01-22T10:52:14.498Z,20.73
2019-01-22T10:56:22.855Z,20.73
2019-01-22T11:00:31.661Z,20.63
2019-01-22T11:04:39.954Z,20.03
2019-01-22T11:08:48.250Z,19.83
2019-01-22T11:12:56.585Z,21.87
2019-01-22T11:17:04.935Z,21.10
2019-01-22T11:21:13.198Z,22.00
2019-01-22T11:25:21.756Z,21.07
2019-01-22T11:29:30.074Z,19.70
2019-01-22T11:33:38.376Z,20.90
2019-01-22T11:37:46.694Z,20.87
2019-01-22T11:41:55.057Z,22.30
2019-01-22T11:46:03.370Z,22.07
2019-01-22T11:50:14.193Z,23.43
2019-01-22T11:54:22.494Z,21.33
2019-01-22T11:58:30.790Z,21.50
2019-01-22T12:02:39.062Z,22.37
2019-01-22T12:06:47.376Z,21.93
2019-01-22T12:10:55.676Z,21.70
2019-01-22T12:15:05.275Z,21.53
2019-01-22T12:19:13.573Z,22.77
2019-01-22T12:23:21.843Z,21.57
2019-01-22T12:27:30.108Z,21.47
2019-01-22T12:31:38.405Z,24.47
2019-01-22T12:35:46.682Z,21.60
2019-01-22T12:39:55.020Z,21.80
2019-01-22T12:44:03.369Z,21.40
2019-01-22T12:48:11.695Z,20.87
2019-01-22T12:52:20.056Z,21.80
2019-01-22T12:56:28.356Z,26.27
2019-01-22T13:00:36.720Z,24.07
2019-01-22T13:04:45.019Z,23.33
2019-01-22T13:08:53.294Z,22.37
2019-01-22T13:13:01.596Z,23.73
2019-01-22T13:17:09.847Z,21.70
2019-01-22T13:21:18.273Z,24.07
2019-01-22T13:25:26.257Z,22.00
2019-01-22T13:29:34.567Z,25.90
2019-01-22T13:33:42.829Z,25.30
2019-01-22T13:37:51.195Z,25.93
2019-01-22T13:41:59.532Z,23.23
2019-01-22T13:46:07.875Z,24.97
2019-01-22T13:50:18.035Z,25.60
2019-01-22T13:54:26.293Z,23.33
2019-01-22T13:58:34.614Z,24.83
2019-01-22T14:02:42.930Z,23.33
2019-01-22T14:06:51.170Z,22.60
2019-01-22T14:10:59.478Z,22.50
2019-01-22T14:15:10.365Z,21.70
2019-01-22T14:19:18.737Z,24.77
2019-01-22T14:23:27.014Z,22.17
2019-01-22T14:27:35.371Z,24.57
2019-01-22T14:31:43.630Z,23.80
2019-01-22T14:35:52.001Z,24.73
2019-01-22T14:40:00.275Z,22.70
2019-01-22T14:44:08.324Z,27.50
2019-01-22T14:48:16.647Z,23.73
2019-01-22T14:52:25.044Z,23.10
2019-01-22T14:56:33.299Z,24.37
2019-01-22T15:00:41.589Z,25.20
2019-01-22T15:04:49.899Z,20.47
2019-01-22T15:08:58.219Z,23.40
2019-01-22T15:13:06.539Z,22.83
2019-01-22T15:17:14.889Z,22.57
2019-01-22T15:21:23.181Z,21.80
2019-01-22T15:25:31.597Z,21.37
2019-01-22T15:29:39.862Z,19.73
2019-01-22T15:33:48.193Z,21.43
2019-01-22T15:37:56.489Z,22.57
2019-01-22T15:42:04.792Z,20.52
2019-01-22T15:46:13.088Z,22.43
2019-01-22T15:50:21.500Z,21.47
2019-01-22T15:54:29.797Z,24.07
2019-01-22T15:58:38.051Z,20.23
2019-01-22T16:02:46.392Z,22.87
2019-01-22T16:06:54.669Z,22.13
2019-01-22T16:11:03.179Z,22.03
2019-01-22T16:15:14.058Z,22.07
2019-01-22T16:19:22.351Z,23.60
2019-01-22T16:23:30.633Z,21.70
2019-01-22T16:27:38.969Z,22.10
2019-01-22T16:31:47.255Z,21.90
2019-01-22T16:35:55.580Z,23.43
2019-01-22T16:40:04.280Z,23.60
2019-01-22T16:44:12.585Z,24.63
2019-01-22T16:48:20.887Z,19.77
2019-01-22T16:52:29.116Z,23.60
2019-01-22T16:56:37.457Z,23.93
2019-01-22T17:00:45.527Z,23.27
2019-01-22T17:04:53.836Z,25.10
2019-01-22T17:09:02.103Z,23.87
2019-01-22T17:13:10.384Z,26.47
2019-01-22T17:17:18.675Z,23.20
2019-01-22T17:21:26.953Z,21.67
2019-01-22T17:25:35.255Z,24.60
2019-01-22T17:29:43.621Z,21.60
2019-01-22T17:33:56.309Z,20.95
2019-01-22T17:38:04.639Z,24.10
2019-01-22T17:42:12.938Z,23.30
2019-01-22T17:46:21.202Z,25.93
2019-01-22T17:50:29.513Z,25.60
2019-01-22T17:54:37.822Z,23.57
2019-01-22T17:58:46.091Z,22.30
2019-01-22T18:02:54.403Z,23.23
2019-01-22T18:07:02.751Z,23.50
2019-01-22T18:11:11.091Z,23.90
2019-01-22T18:15:19.379Z,24.17
2019-01-22T18:19:27.630Z,26.00
2019-01-22T18:23:36.023Z,22.50
2019-01-22T18:27:44.292Z,23.07
2019-01-22T18:31:52.578Z,24.70
2019-01-22T18:36:00.940Z,24.07
2019-01-22T18:40:10.566Z,25.97
2019-01-22T18:44:18.866Z,23.33
2019-01-22T18:48:26.926Z,23.80
2019-01-22T18:52:35.255Z,25.37
2019-01-22T18:56:43.601Z,25.47
2019-01-22T19:00:51.956Z,26.20
2019-01-22T19:05:00.216Z,24.00
2019-01-22T19:09:08.489Z,26.17
2019-01-22T19:13:16.749Z,25.90
2019-01-22T19:17:25.129Z,28.90
2019-01-22T19:21:33.534Z,24.93
2019-01-22T19:25:41.827Z,27.53
2019-01-22T19:29:50.140Z,24.23
2019-01-22T19:33:58.393Z,25.60
2019-01-22T19:38:06.724Z,25.93
2019-01-22T19:42:14.994Z,24.13
2019-01-22T19:46:23.311Z,25.10
2019-01-22T19:50:31.633Z,26.60
2019-01-22T19:54:39.971Z,25.80
2019-01-22T19:58:48.295Z,25.83
2019-01-22T20:02:56.619Z,25.67
2019-01-22T20:07:04.893Z,24.40
2019-01-22T20:11:12.929Z,25.00
2019-01-22T20:15:21.238Z,24.50
2019-01-22T20:19:29.514Z,29.33
2019-01-22T20:23:37.842Z,25.53
2019-01-22T20:27:48.139Z,26.10
2019-01-22T20:31:54.468Z,25.03
2019-01-22T20:36:02.734Z,25.57
2019-01-22T20:40:11.642Z,23.67
2019-01-22T20:44:19.916Z,27.47
2019-01-22T20:48:28.219Z,22.97
2019-01-22T20:52:36.478Z,24.70
2019-01-22T20:56:44.936Z,25.97
2019-01-22T21:00:53.082Z,26.13
2019-01-22T21:05:01.416Z,25.93
2019-01-22T21:09:09.748Z,25.50
2019-01-22T21:13:18.258Z,24.93
2019-01-22T21:17:26.634Z,28.17
2019-01-22T21:21:34.932Z,25.60
2019-01-22T21:25:43.220Z,24.50
2019-01-22T21:29:51.514Z,24.12
2019-01-22T21:33:59.872Z,24.27
2019-01-22T21:38:08.843Z,24.77
2019-01-22T21:42:17.137Z,23.60
2019-01-22T21:46:25.222Z,24.33
2019-01-22T21:50:33.525Z,28.17
2019-01-22T21:54:41.757Z,26.63
2019-01-22T21:58:50.151Z,25.37
2019-01-22T22:02:58.471Z,29.17
2019-01-22T22:07:06.753Z,23.03
2019-01-22T22:11:15.038Z,25.80
2019-01-22T22:15:24.286Z,23.37
2019-01-22T22:19:32.597Z,24.87
2019-01-22T22:23:40.871Z,26.53
2019-01-22T22:27:49.182Z,25.80
2019-01-22T22:31:57.457Z,25.00
2019-01-22T22:36:05.791Z,26.37
2019-01-22T22:40:14.206Z,25.57
2019-01-22T22:44:22.533Z,25.40
2019-01-22T22:48:30.795Z,28.20
2019-01-22T22:52:39.062Z,27.27
2019-01-22T22:56:47.347Z,26.53
2019-01-22T23:01:00.560Z,22.87
2019-01-22T23:05:08.866Z,26.40
2019-01-22T23:09:17.212Z,26.70
2019-01-22T23:13:25.290Z,24.60
2019-01-22T23:17:33.541Z,27.20
2019-01-22T23:21:41.841Z,27.93
2019-01-22T23:25:50.140Z,26.60
2019-01-22T23:29:58.413Z,27.10
2019-01-22T23:34:06.673Z,27.93
2019-01-22T23:38:14.969Z,27.07
2019-01-22T23:42:23.230Z,27.03
2019-01-22T23:46:31.593Z,27.63
2019-01-22T23:50:39.918Z,28.12
2019-01-22T23:54:48.283Z,27.10
2019-01-22T23:58:56.589Z,26.70
